Cathay, North Dakota
Current Conditions -  °F | °C
As of 3:35 AM on Friday 28 Nov 2014 (Local Time) from K46D Reporting Station
Overcast Overcast  
Wind Chill: -10°   Ceiling: 200
Heat Index:   Visibility: 10mi
Dew Point:   Wind: 14mph
Humidity: 92%   Direction: 130°SE
Pressure: 29.92"   Gusts: NA
Location:  47.55°N, 99.41°W
Report Text: K46D 280935Z AUTO 13012KT 10SM BKN002 OVC018 M14/M15 A2992 RMK AO2
Loading
Personal Weather Stations






























Interactive Weather Map New forecast layout! Learn more

10-Day Weather Forecast

Advertisements
Track Severe Weather on mobile